createdAt,value
2019-03-08T00:02:05.079Z,98431.31
2019-03-08T00:04:35.668Z,98438.72
2019-03-08T00:07:06.249Z,98436.30
2019-03-08T00:09:36.644Z,98437.59
2019-03-08T00:12:07.233Z,98434.83
2019-03-08T00:14:37.710Z,98434.20
2019-03-08T00:17:08.309Z,98430.80
2019-03-08T00:19:39.490Z,98438.84
2019-03-08T00:22:10.706Z,98429.52
2019-03-08T00:24:41.272Z,98431.03
2019-03-08T00:27:11.632Z,98436.80
2019-03-08T00:29:42.109Z,98438.26
2019-03-08T00:32:12.743Z,98438.47
2019-03-08T00:34:43.240Z,98441.25
2019-03-08T00:37:13.792Z,98440.82
2019-03-08T00:39:44.193Z,98444.52
2019-03-08T00:42:14.623Z,98436.25
2019-03-08T00:44:45.110Z,98448.95
2019-03-08T00:47:15.709Z,98456.81
2019-03-08T00:49:46.159Z,98457.39
2019-03-08T00:52:16.644Z,98458.39
2019-03-08T00:54:47.353Z,98463.72
2019-03-08T00:57:17.979Z,98467.70
2019-03-08T00:59:48.403Z,98462.41
2019-03-08T01:02:18.945Z,98453.94
2019-03-08T01:04:49.972Z,98457.99
2019-03-08T01:07:20.533Z,98461.42
2019-03-08T01:09:51.179Z,98457.34
2019-03-08T01:12:21.788Z,98457.19
2019-03-08T01:14:52.391Z,98453.54
2019-03-08T01:17:23.118Z,98453.54
2019-03-08T01:19:53.704Z,98453.06
2019-03-08T01:22:24.226Z,98448.34
2019-03-08T01:24:55.173Z,98448.76
2019-03-08T01:27:25.659Z,98452.75
2019-03-08T01:29:56.463Z,98453.13
2019-03-08T01:32:27.029Z,98462.03
2019-03-08T01:34:57.833Z,98458.94
2019-03-08T01:37:28.442Z,98454.04
2019-03-08T01:39:59.063Z,98452.59
2019-03-08T01:42:30.099Z,98450.05
2019-03-08T01:45:00.683Z,98445.94
2019-03-08T01:47:31.267Z,98448.84
2019-03-08T01:50:01.956Z,98447.08
2019-03-08T01:52:32.833Z,98433.33
2019-03-08T01:55:03.832Z,98437.03
2019-03-08T01:57:34.193Z,98436.63
2019-03-08T02:00:05.521Z,98445.36
2019-03-08T02:02:36.459Z,98435.73
2019-03-08T02:05:07.637Z,98437.39
2019-03-08T02:07:38.379Z,98438.17
2019-03-08T02:10:10.579Z,98429.86
2019-03-08T02:12:42.099Z,98429.48
2019-03-08T02:15:14.700Z,98420.63
2019-03-08T02:17:45.263Z,98422.11
2019-03-08T02:20:20.374Z,98419.45
2019-03-08T02:22:50.943Z,98414.86
2019-03-08T02:25:21.839Z,98410.14
2019-03-08T02:27:52.445Z,98402.11
2019-03-08T02:30:23.066Z,98411.66
2019-03-08T02:32:53.521Z,98407.22
2019-03-08T02:35:24.063Z,98411.82
2019-03-08T02:37:54.789Z,98411.98
2019-03-08T02:40:36.736Z,98408.35
2019-03-08T02:43:16.403Z,98408.86
2019-03-08T02:45:47.102Z,98408.63
2019-03-08T02:48:17.659Z,98400.16
2019-03-08T02:50:48.062Z,98409.17
2019-03-08T02:53:18.821Z,98402.66
2019-03-08T02:55:51.293Z,98405.85
2019-03-08T02:58:21.838Z,98405.70
2019-03-08T03:00:52.415Z,98398.48
2019-03-08T03:03:22.978Z,98398.25
2019-03-08T03:05:54.443Z,98392.99
2019-03-08T03:08:24.995Z,98394.63
2019-03-08T03:10:55.503Z,98381.52
2019-03-08T03:13:26.059Z,98391.77
2019-03-08T03:15:56.623Z,98389.83
2019-03-08T03:18:27.085Z,98383.94
2019-03-08T03:20:57.610Z,98383.05
2019-03-08T03:23:27.998Z,98375.16
2019-03-08T03:25:58.394Z,98380.78
2019-03-08T03:28:28.928Z,98383.05
2019-03-08T03:30:59.674Z,98390.77
2019-03-08T03:33:30.098Z,98393.50
2019-03-08T03:36:00.593Z,98381.60
2019-03-08T03:38:33.103Z,98386.28
2019-03-08T03:41:03.706Z,98400.66
2019-03-08T03:43:34.627Z,98383.47
2019-03-08T03:46:05.183Z,98384.67
2019-03-08T03:48:35.607Z,98382.42
2019-03-08T03:51:06.146Z,98387.06
2019-03-08T03:53:36.636Z,98394.66
2019-03-08T03:56:07.577Z,98385.62
2019-03-08T03:58:38.066Z,98385.55
2019-03-08T04:01:27.593Z,98378.95
2019-03-08T04:03:58.053Z,98367.13
2019-03-08T04:06:28.642Z,98368.11
2019-03-08T04:08:59.047Z,98350.25
2019-03-08T04:11:29.600Z,98366.89
2019-03-08T04:14:00.007Z,98368.25
2019-03-08T04:16:30.569Z,98364.73
2019-03-08T04:19:01.092Z,98373.41
2019-03-08T04:21:31.567Z,98374.67
2019-03-08T04:24:02.317Z,98378.56
2019-03-08T04:26:33.018Z,98373.80
2019-03-08T04:29:03.912Z,98371.23
2019-03-08T04:31:34.899Z,98367.92
2019-03-08T04:34:05.467Z,98368.27
2019-03-08T04:36:36.053Z,98367.29
2019-03-08T04:39:09.823Z,98355.30
2019-03-08T04:41:40.307Z,98368.86
2019-03-08T04:44:10.788Z,98364.54
2019-03-08T04:46:41.179Z,98368.39
2019-03-08T04:49:11.599Z,98363.88
2019-03-08T04:51:42.162Z,98367.42
2019-03-08T04:54:12.638Z,98368.08
2019-03-08T04:56:43.363Z,98367.73
2019-03-08T04:59:14.469Z,98369.21
2019-03-08T05:01:45.265Z,98370.03
2019-03-08T05:04:16.121Z,98369.28
2019-03-08T05:06:47.032Z,98375.45
2019-03-08T05:09:17.864Z,98367.73
2019-03-08T05:11:49.255Z,98370.31
2019-03-08T05:14:20.191Z,98374.16
2019-03-08T05:16:50.870Z,98382.73
2019-03-08T05:19:21.567Z,98387.18
2019-03-08T05:21:52.468Z,98383.63
2019-03-08T05:24:23.003Z,98385.90
2019-03-08T05:26:53.735Z,98377.27
2019-03-08T05:29:24.482Z,98367.76
2019-03-08T05:31:55.031Z,98364.14
2019-03-08T05:34:25.939Z,98366.98
2019-03-08T05:36:56.537Z,98374.31
2019-03-08T05:39:27.157Z,98383.16
2019-03-08T05:41:57.858Z,98377.55
2019-03-08T05:44:28.437Z,98376.73
2019-03-08T05:46:59.174Z,98383.33
2019-03-08T05:49:29.817Z,98392.84
2019-03-08T05:52:00.434Z,98391.55
2019-03-08T05:54:31.204Z,98389.28
2019-03-08T05:57:01.812Z,98396.34
2019-03-08T05:59:32.480Z,98395.09
2019-03-08T06:02:03.210Z,98391.04
2019-03-08T06:04:33.633Z,98388.31
2019-03-08T06:07:04.406Z,98395.33
2019-03-08T06:09:35.103Z,98390.89
2019-03-08T06:12:05.850Z,98388.20
2019-03-08T06:14:36.337Z,98382.70
2019-03-08T06:17:06.927Z,98390.95
2019-03-08T06:19:37.561Z,98386.69
2019-03-08T06:22:07.988Z,98382.19
2019-03-08T06:24:38.459Z,98385.33
2019-03-08T06:27:09.445Z,98388.73
2019-03-08T06:29:40.030Z,98393.65
2019-03-08T06:32:10.617Z,98398.28
2019-03-08T06:34:41.273Z,98386.61
2019-03-08T06:37:11.722Z,98398.82
2019-03-08T06:39:42.312Z,98393.09
2019-03-08T06:42:12.826Z,98402.11
2019-03-08T06:44:43.157Z,98401.38
2019-03-08T06:47:13.591Z,98407.75
2019-03-08T06:49:44.229Z,98409.56
2019-03-08T06:52:14.793Z,98421.41
2019-03-08T06:54:45.480Z,98418.53
2019-03-08T06:57:16.058Z,98411.83
2019-03-08T07:00:10.068Z,98420.31
2019-03-08T07:02:40.673Z,98436.16
2019-03-08T07:05:11.264Z,98424.66
2019-03-08T07:07:41.936Z,98421.39
2019-03-08T07:10:12.853Z,98418.26
2019-03-08T07:12:43.368Z,98411.31
2019-03-08T07:15:14.070Z,98417.83
2019-03-08T07:17:44.894Z,98417.30
2019-03-08T07:20:34.467Z,98420.02
2019-03-08T07:23:27.831Z,98410.59
2019-03-08T07:26:07.157Z,98411.55
2019-03-08T07:28:57.456Z,98405.55
2019-03-08T07:31:39.657Z,98392.30
2019-03-08T07:34:16.168Z,98405.84
2019-03-08T07:37:05.533Z,98414.06
2019-03-08T07:39:55.258Z,98409.98
2019-03-08T07:42:45.170Z,98411.12
2019-03-08T07:45:30.835Z,98417.05
2019-03-08T07:48:17.177Z,98408.09
2019-03-08T07:51:06.900Z,98429.98
2019-03-08T07:53:47.308Z,98420.63
2019-03-08T07:56:36.618Z,98413.78
2019-03-08T07:59:25.977Z,98430.81
2019-03-08T08:02:02.791Z,98426.66
2019-03-08T08:04:41.024Z,98417.05
2019-03-08T08:07:30.606Z,98424.13
2019-03-08T08:10:19.938Z,98416.42
2019-03-08T08:13:09.493Z,98417.73
2019-03-08T08:15:54.664Z,98423.98
2019-03-08T08:18:38.543Z,98425.02
2019-03-08T08:21:27.983Z,98429.86
2019-03-08T08:24:05.883Z,98399.06
2019-03-08T08:26:44.898Z,98427.75
2019-03-08T08:29:35.188Z,98432.47
2019-03-08T08:32:25.702Z,98436.77
2019-03-08T08:35:09.453Z,98437.05
2019-03-08T08:37:51.337Z,98420.19
2019-03-08T08:40:41.229Z,98435.81
2019-03-08T08:43:30.572Z,98444.45
2019-03-08T08:46:09.181Z,98428.81
2019-03-08T08:48:58.743Z,98442.78
2019-03-08T08:51:48.168Z,98442.67
2019-03-08T08:54:28.621Z,98446.72
2019-03-08T08:57:08.147Z,98432.27
2019-03-08T08:59:47.208Z,98456.22
2019-03-08T09:02:31.077Z,98459.04
2019-03-08T09:05:06.817Z,98450.72
2019-03-08T09:07:45.529Z,98455.25
2019-03-08T09:10:26.568Z,98433.17
2019-03-08T09:13:02.357Z,98455.44
2019-03-08T09:15:40.440Z,98462.91
2019-03-08T09:18:17.833Z,98463.76
2019-03-08T09:20:57.977Z,98449.79
2019-03-08T09:23:34.597Z,98454.33
2019-03-08T09:26:24.021Z,98451.61
2019-03-08T09:29:04.606Z,98475.89
2019-03-08T09:31:53.991Z,98485.52
2019-03-08T09:34:43.327Z,98467.08
2019-03-08T09:37:32.731Z,98488.31
2019-03-08T09:40:22.147Z,98480.03
2019-03-08T09:43:01.869Z,98485.86
2019-03-08T09:45:41.459Z,98482.88
2019-03-08T09:48:30.894Z,98494.05
2019-03-08T09:51:11.723Z,98494.39
2019-03-08T09:53:47.312Z,98498.64
2019-03-08T09:56:23.544Z,98491.11
2019-03-08T09:59:12.886Z,98495.12
2019-03-08T10:01:53.118Z,98506.31
2019-03-08T10:04:42.778Z,98503.12
2019-03-08T10:07:32.252Z,98513.90
2019-03-08T10:10:21.698Z,98513.04
2019-03-08T10:13:11.124Z,98531.20
2019-03-08T10:15:46.217Z,98528.38
2019-03-08T10:18:35.973Z,98512.76
2019-03-08T10:21:19.267Z,98533.45
2019-03-08T10:24:08.950Z,98516.88
2019-03-08T10:26:46.930Z,98534.17
2019-03-08T10:29:27.044Z,98534.63
2019-03-08T10:32:16.134Z,98536.67
2019-03-08T10:35:06.133Z,98565.16
2019-03-08T10:37:47.661Z,98537.59
2019-03-08T10:40:25.527Z,98559.34
2019-03-08T10:42:59.768Z,98566.38
2019-03-08T10:45:48.256Z,98567.84
2019-03-08T10:48:26.958Z,98554.78
2019-03-08T10:51:16.494Z,98555.92
2019-03-08T10:54:06.011Z,98561.05
2019-03-08T10:56:55.419Z,98580.72
2019-03-08T10:59:31.487Z,98553.70
2019-03-08T11:02:21.157Z,98569.36
2019-03-08T11:05:02.627Z,98587.34
2019-03-08T11:07:51.792Z,98583.41
2019-03-08T11:10:37.022Z,98591.34
2019-03-08T11:13:24.879Z,98601.52
2019-03-08T11:16:14.336Z,98581.06
2019-03-08T11:19:08.814Z,98599.25
2019-03-08T11:21:55.275Z,98613.39
2019-03-08T11:24:45.170Z,98609.09
2019-03-08T11:27:28.396Z,98610.20
2019-03-08T11:30:11.003Z,98623.52
2019-03-08T11:32:53.888Z,98612.95
2019-03-08T11:35:43.552Z,98625.48
2019-03-08T11:38:32.872Z,98637.86
2019-03-08T11:41:10.018Z,98643.84
2019-03-08T11:43:56.452Z,98643.56
2019-03-08T11:46:36.521Z,98643.53
2019-03-08T11:49:23.851Z,98652.42
2019-03-08T11:52:13.298Z,98652.16
2019-03-08T11:55:03.835Z,98654.80
2019-03-08T11:57:53.994Z,98651.14
2019-03-08T12:00:43.371Z,98643.13
2019-03-08T12:03:32.777Z,98653.14
2019-03-08T12:06:14.348Z,98655.64
2019-03-08T12:09:03.747Z,98649.60
2019-03-08T12:11:53.198Z,98655.95
2019-03-08T12:14:42.631Z,98650.62
2019-03-08T12:17:29.189Z,98648.86
2019-03-08T12:20:08.881Z,98652.19
2019-03-08T12:22:58.704Z,98648.77
2019-03-08T12:25:48.336Z,98660.23
2019-03-08T12:28:37.146Z,98639.49
2019-03-08T12:31:16.413Z,98665.94
2019-03-08T12:34:00.117Z,98662.84
2019-03-08T12:36:49.405Z,98676.84
2019-03-08T12:39:32.866Z,98670.48
2019-03-08T12:42:22.572Z,98666.06
2019-03-08T12:45:12.011Z,98672.38
2019-03-08T12:48:01.806Z,98674.55
2019-03-08T12:50:51.267Z,98681.51
2019-03-08T12:53:41.022Z,98671.55
2019-03-08T12:56:25.954Z,98684.63
2019-03-08T12:59:15.428Z,98671.95
2019-03-08T13:02:04.763Z,98692.40
2019-03-08T13:04:54.234Z,98685.16
2019-03-08T13:07:38.018Z,98688.77
2019-03-08T13:10:11.056Z,98688.60
2019-03-08T13:12:41.580Z,98676.91
2019-03-08T13:15:14.224Z,98689.16
2019-03-08T13:17:45.051Z,98690.23
2019-03-08T13:20:17.748Z,98700.02
2019-03-08T13:22:48.449Z,98701.20
2019-03-08T13:25:19.448Z,98693.83
2019-03-08T13:27:50.104Z,98704.36
2019-03-08T13:30:22.499Z,98716.22
2019-03-08T13:32:53.279Z,98712.64
2019-03-08T13:35:23.863Z,98707.80
2019-03-08T13:37:54.579Z,98703.57
2019-03-08T13:40:25.486Z,98720.28
2019-03-08T13:42:56.178Z,98730.22
2019-03-08T13:45:26.983Z,98719.05
2019-03-08T13:47:57.613Z,98727.45
2019-03-08T13:50:28.317Z,98730.47
2019-03-08T13:52:58.865Z,98733.31
2019-03-08T13:55:29.364Z,98751.57
2019-03-08T13:57:59.943Z,98738.34
2019-03-08T14:00:30.688Z,98720.13
2019-03-08T14:03:01.403Z,98743.81
2019-03-08T14:05:32.084Z,98756.02
2019-03-08T14:08:02.682Z,98746.54
2019-03-08T14:10:33.120Z,98747.97
2019-03-08T14:13:03.754Z,98753.47
2019-03-08T14:15:34.238Z,98744.94
2019-03-08T14:18:04.901Z,98753.88
2019-03-08T14:20:35.652Z,98761.01
2019-03-08T14:23:06.383Z,98761.91
2019-03-08T14:25:36.984Z,98766.95
2019-03-08T14:28:07.782Z,98763.36
2019-03-08T14:30:45.283Z,98766.37
2019-03-08T14:33:15.951Z,98772.64
2019-03-08T14:35:46.553Z,98765.56
2019-03-08T14:38:17.033Z,98762.05
2019-03-08T14:41:06.732Z,98780.95
2019-03-08T14:43:48.974Z,98777.86
2019-03-08T14:46:24.708Z,98785.36
2019-03-08T14:48:55.782Z,98785.83
2019-03-08T14:51:26.294Z,98801.66
2019-03-08T14:53:57.000Z,98796.21
2019-03-08T14:56:31.721Z,98781.59
2019-03-08T14:59:00.223Z,98803.87
2019-03-08T15:01:30.903Z,98780.20
2019-03-08T15:04:01.582Z,98805.55
2019-03-08T15:06:51.317Z,98793.59
2019-03-08T15:09:22.128Z,98807.34
2019-03-08T15:11:55.955Z,98811.75
2019-03-08T15:14:25.439Z,98818.67
2019-03-08T15:16:55.880Z,98826.30
2019-03-08T15:19:26.748Z,98809.48
2019-03-08T15:21:57.286Z,98833.59
2019-03-08T15:24:27.793Z,98842.16
2019-03-08T15:26:58.343Z,98831.67
2019-03-08T15:29:28.824Z,98857.87
2019-03-08T15:31:59.714Z,98859.82
2019-03-08T15:34:30.313Z,98857.92
2019-03-08T15:37:00.950Z,98856.38
2019-03-08T15:42:11.136Z,98875.50
2019-03-08T15:44:41.798Z,98872.05
2019-03-08T15:47:23.029Z,98862.68
2019-03-08T15:49:44.672Z,98874.42
2019-03-08T15:52:15.379Z,98867.56
2019-03-08T15:54:45.964Z,98881.36
2019-03-08T15:57:16.593Z,98885.73
2019-03-08T15:59:47.102Z,98868.86
2019-03-08T16:02:17.868Z,98888.50
2019-03-08T16:04:50.131Z,98894.23
2019-03-08T16:07:22.976Z,98896.20
2019-03-08T16:09:53.539Z,98902.80
2019-03-08T16:12:24.199Z,98905.56
2019-03-08T16:14:55.125Z,98911.05
2019-03-08T16:17:25.723Z,98918.62
2019-03-08T16:19:58.803Z,98917.41
2019-03-08T16:22:30.018Z,98926.55
2019-03-08T16:25:00.945Z,98933.02
2019-03-08T16:27:32.062Z,98936.70
2019-03-08T16:30:09.630Z,98946.06
2019-03-08T16:32:54.065Z,98946.65
2019-03-08T16:35:25.531Z,98952.52
2019-03-08T16:38:14.756Z,98978.59
2019-03-08T16:41:02.244Z,98988.45
2019-03-08T16:43:52.280Z,99010.81
2019-03-08T16:46:34.350Z,99015.88
2019-03-08T16:49:14.768Z,99024.93
2019-03-08T16:52:04.578Z,99027.42
2019-03-08T16:54:53.639Z,99029.57
2019-03-08T16:57:42.086Z,99035.21
2019-03-08T17:00:31.488Z,99029.78
2019-03-08T17:03:15.855Z,99039.54
2019-03-08T17:06:01.646Z,99038.65
2019-03-08T17:08:51.091Z,99051.13
2019-03-08T17:11:31.273Z,99062.25
2019-03-08T17:14:13.676Z,99083.64
2019-03-08T17:17:02.998Z,99092.57
2019-03-08T17:19:49.447Z,99103.27
2019-03-08T17:22:31.464Z,99087.34
2019-03-08T17:25:11.645Z,99106.51
2019-03-08T17:28:02.200Z,99102.45
2019-03-08T17:30:51.638Z,99111.83
2019-03-08T17:33:28.917Z,99113.02
2019-03-08T17:36:09.298Z,99101.48
2019-03-08T17:38:58.692Z,99113.66
2019-03-08T17:41:55.662Z,99119.57
2019-03-08T17:44:51.626Z,99128.94
2019-03-08T17:47:44.648Z,99131.30
2019-03-08T17:50:35.167Z,99131.10
2019-03-08T17:53:24.593Z,99137.71
2019-03-08T17:56:10.706Z,99140.95
2019-03-08T17:59:00.571Z,99143.86
2019-03-08T18:01:44.879Z,99153.54
2019-03-08T18:04:36.354Z,99155.91
2019-03-08T18:07:16.378Z,99156.53
2019-03-08T18:10:05.533Z,99160.59
2019-03-08T18:12:55.121Z,99159.78
2019-03-08T18:15:31.893Z,99154.84
2019-03-08T18:18:25.356Z,99165.13
2019-03-08T18:21:08.258Z,99163.45
2019-03-08T18:24:00.908Z,99167.83
2019-03-08T18:26:53.897Z,99164.16
2019-03-08T18:29:49.648Z,99158.78
2019-03-08T18:32:39.108Z,99153.61
2019-03-08T18:35:28.715Z,99155.72
2019-03-08T18:38:21.496Z,99174.20
2019-03-08T18:41:07.572Z,99172.55
2019-03-08T18:43:59.393Z,99180.38
2019-03-08T18:46:51.576Z,99166.23
2019-03-08T18:49:39.513Z,99180.27
2019-03-08T18:52:31.773Z,99177.78
2019-03-08T18:55:13.400Z,99182.92
2019-03-08T18:58:04.099Z,99185.77
2019-03-08T19:01:07.413Z,99191.81
2019-03-08T19:03:53.778Z,99194.77
2019-03-08T19:06:34.117Z,99198.04
2019-03-08T19:09:23.146Z,99200.99
2019-03-08T19:12:08.723Z,99201.69
2019-03-08T19:14:51.668Z,99208.67
2019-03-08T19:17:38.441Z,99218.02
2019-03-08T19:20:28.609Z,99220.94
2019-03-08T19:23:08.649Z,99221.02
2019-03-08T19:25:46.550Z,99225.63
2019-03-08T19:28:36.048Z,99230.28
2019-03-08T19:31:14.249Z,99231.36
2019-03-08T19:33:57.033Z,99230.45
2019-03-08T19:36:50.803Z,99237.27
2019-03-08T19:39:45.658Z,99244.59
2019-03-08T19:42:23.588Z,99245.66
2019-03-08T19:45:14.788Z,99244.38
2019-03-08T19:47:58.842Z,99247.22
2019-03-08T19:50:49.809Z,99241.88
2019-03-08T19:53:53.111Z,99242.53
2019-03-08T19:56:47.599Z,99245.78
2019-03-08T19:59:40.063Z,99244.84
2019-03-08T20:02:18.001Z,99254.98
2019-03-08T20:05:03.989Z,99263.05
2019-03-08T20:07:53.516Z,99264.87
2019-03-08T20:10:45.823Z,99269.46
2019-03-08T20:13:36.461Z,99276.09
2019-03-08T20:16:26.463Z,99283.79
2019-03-08T20:19:09.900Z,99291.39
2019-03-08T20:21:50.683Z,99290.25
2019-03-08T20:24:31.088Z,99297.16
2019-03-08T20:27:26.388Z,99298.33
2019-03-08T20:30:16.154Z,99298.71
2019-03-08T20:33:07.338Z,99308.59
2019-03-08T20:36:01.091Z,99317.21
2019-03-08T20:38:50.705Z,99317.52
2019-03-08T20:41:40.142Z,99322.39
2019-03-08T20:44:24.313Z,99325.52
2019-03-08T20:46:59.953Z,99323.98
2019-03-08T20:49:31.642Z,99325.30
2019-03-08T20:52:12.585Z,99329.42
2019-03-08T20:54:43.263Z,99329.19
2019-03-08T20:57:14.278Z,99323.88
2019-03-08T20:59:47.723Z,99327.72
2019-03-08T21:02:18.342Z,99329.42
2019-03-08T21:04:50.280Z,99335.49
2019-03-08T21:07:26.271Z,99339.75
2019-03-08T21:10:00.303Z,99332.77
2019-03-08T21:12:38.284Z,99337.66
2019-03-08T21:15:11.623Z,99341.01
2019-03-08T21:18:04.932Z,99341.70
2019-03-08T21:20:39.158Z,99343.16
2019-03-08T21:23:17.931Z,99344.20
2019-03-08T21:25:57.009Z,99343.84
2019-03-08T21:28:27.793Z,99352.84
2019-03-08T21:31:01.688Z,99348.37
2019-03-08T21:33:35.367Z,99346.72
2019-03-08T21:36:06.134Z,99344.84
2019-03-08T21:38:37.856Z,99347.14
2019-03-08T21:41:11.298Z,99346.13
2019-03-08T21:43:41.983Z,99355.76
2019-03-08T21:46:12.558Z,99356.66
2019-03-08T21:48:43.094Z,99356.91
2019-03-08T21:51:15.046Z,99357.17
2019-03-08T21:53:45.417Z,99352.32
2019-03-08T21:56:16.107Z,99349.27
2019-03-08T21:58:46.721Z,99349.52
2019-03-08T22:01:17.107Z,99356.16
2019-03-08T22:03:53.568Z,99360.13
2019-03-08T22:06:24.182Z,99362.07
2019-03-08T22:09:03.589Z,99371.77
2019-03-08T22:11:37.248Z,99362.82
2019-03-08T22:14:08.422Z,99361.67
2019-03-08T22:16:39.040Z,99365.38
2019-03-08T22:19:10.010Z,99369.34
2019-03-08T22:21:40.323Z,99370.86
2019-03-08T22:24:13.641Z,99366.89
2019-03-08T22:26:43.698Z,99372.12
2019-03-08T22:29:14.186Z,99368.42
2019-03-08T22:31:44.747Z,99363.68
2019-03-08T22:34:15.309Z,99363.06
2019-03-08T22:36:45.889Z,99363.55
2019-03-08T22:39:16.741Z,99363.55
2019-03-08T22:41:47.247Z,99365.81
2019-03-08T22:44:19.363Z,99366.34
2019-03-08T22:46:49.833Z,99368.77
2019-03-08T22:49:20.214Z,99362.49
2019-03-08T22:51:50.723Z,99362.19
2019-03-08T22:54:21.145Z,99366.02
2019-03-08T22:56:51.630Z,99361.14
2019-03-08T22:59:22.037Z,99366.24
2019-03-08T23:01:54.566Z,99362.41
2019-03-08T23:04:25.033Z,99363.45
2019-03-08T23:06:55.771Z,99359.73
2019-03-08T23:09:26.440Z,99364.34
2019-03-08T23:11:57.569Z,99368.05
2019-03-08T23:14:28.063Z,99368.05
2019-03-08T23:16:58.793Z,99373.28
2019-03-08T23:19:29.202Z,99379.55
2019-03-08T23:22:00.145Z,99377.27
2019-03-08T23:24:30.679Z,99376.53
2019-03-08T23:27:20.031Z,99373.59
2019-03-08T23:29:54.116Z,99370.80
2019-03-08T23:32:27.828Z,99368.66
2019-03-08T23:34:58.090Z,99364.59
2019-03-08T23:37:28.516Z,99368.92
2019-03-08T23:39:58.965Z,99363.69
2019-03-08T23:42:29.749Z,99371.11
2019-03-08T23:45:00.363Z,99371.65
2019-03-08T23:47:30.888Z,99371.77
2019-03-08T23:50:01.465Z,99372.15
2019-03-08T23:52:31.974Z,99372.92
2019-03-08T23:55:02.649Z,99363.84
2019-03-08T23:57:32.993Z,99361.67
